Terminal Aerodrome Forecast
Issued by NWS Jackson, KY

Home | Current Version | Previous Version | Text Only | Print | Product List | Glossary On
Versions: 1 2 3 4 5 6 7 8 9 10 11 12 13 14 15 16 17 18 19 20 21 22 23
000
FTUS43 KJKL 280425 AAB
TAFJKL
TAF AMD
KJKL 280425Z 2804/2824 VRB03KT 6SM BR VCTS SCT030CB BKN070 OVC100
     FM280500 VRB10G22KT 4SM TSRA BR SCT010 BKN025CB OVC050
     FM280630 14004KT 4SM SHRA BR VCTS SCT020CB OVC050
     FM280900 VRB04KT 6SM BR VCTS FEW020CB BKN030
     FM281100 00000KT 2SM BR BKN010
     FM281500 VRB03KT P6SM BKN015=

USA.gov is the U.S. government's official web portal to all federal, state and local government web resources and services.